createdAt,value
2023-01-05T00:00:32.655Z,21.83
2023-01-05T00:01:35.425Z,29.35
2023-01-05T00:02:37.723Z,28.77
2023-01-05T00:03:40.303Z,25.08
2023-01-05T00:04:42.402Z,19.80
2023-01-05T00:05:44.518Z,18.48
2023-01-05T00:06:46.817Z,18.00
2023-01-05T00:07:48.834Z,19.83
2023-01-05T00:08:50.903Z,21.63
2023-01-05T00:09:52.965Z,26.80
2023-01-05T00:11:13.447Z,26.90
2023-01-05T00:12:34.124Z,21.80
2023-01-05T00:13:54.864Z,18.77
2023-01-05T00:15:22.643Z,17.88
2023-01-05T00:16:43.201Z,20.88
2023-01-05T00:18:04.149Z,22.88
2023-01-05T00:19:24.940Z,24.73
2023-01-05T00:20:45.542Z,21.10
2023-01-05T00:22:06.233Z,28.05
2023-01-05T00:23:08.926Z,26.00
2023-01-05T00:24:13.617Z,27.92
2023-01-05T00:25:21.624Z,27.65
2023-01-05T00:26:24.021Z,26.13
2023-01-05T00:27:27.079Z,26.20
2023-01-05T00:28:29.039Z,25.92
2023-01-05T00:29:31.132Z,25.17
2023-01-05T00:30:38.123Z,23.83
2023-01-05T00:31:40.266Z,23.67
2023-01-05T00:32:43.330Z,24.63
2023-01-05T00:33:45.352Z,25.23
2023-01-05T00:34:48.308Z,25.30
2023-01-05T00:35:50.543Z,25.45
2023-01-05T00:36:52.554Z,24.83
2023-01-05T00:37:55.027Z,25.58
2023-01-05T00:38:56.984Z,26.05
2023-01-05T00:39:59.289Z,25.63
2023-01-05T00:41:01.918Z,25.33
2023-01-05T00:42:03.977Z,27.80
2023-01-05T00:43:06.379Z,27.15
2023-01-05T00:44:08.482Z,25.10
2023-01-05T00:45:13.125Z,26.23
2023-01-05T00:46:15.233Z,26.45
2023-01-05T00:47:17.284Z,26.80
2023-01-05T00:48:19.324Z,27.13
2023-01-05T00:49:21.306Z,27.02
2023-01-05T00:50:23.921Z,27.38
2023-01-05T00:51:25.915Z,27.20
2023-01-05T00:52:27.924Z,26.90
2023-01-05T00:53:30.659Z,26.75
2023-01-05T00:54:33.257Z,24.77
2023-01-05T00:55:35.642Z,25.05
2023-01-05T00:56:37.914Z,24.48
2023-01-05T00:57:40.090Z,24.50
2023-01-05T00:58:43.822Z,24.85
2023-01-05T00:59:45.958Z,24.70
2023-01-05T01:00:52.027Z,23.85
2023-01-05T01:01:55.454Z,23.50
2023-01-05T01:02:57.608Z,23.35
2023-01-05T01:03:59.710Z,23.20
2023-01-05T01:05:02.133Z,22.87
2023-01-05T01:06:06.154Z,23.30
2023-01-05T01:07:08.202Z,22.25
2023-01-05T01:08:10.617Z,22.55
2023-01-05T01:09:13.902Z,22.38
2023-01-05T01:10:15.923Z,22.35
2023-01-05T01:11:17.911Z,22.25
2023-01-05T01:12:20.654Z,22.17
2023-01-05T01:13:24.454Z,20.30
2023-01-05T01:14:27.041Z,20.27
2023-01-05T01:15:29.039Z,20.43
2023-01-05T01:16:31.119Z,20.27
2023-01-05T01:17:33.357Z,19.30
2023-01-05T01:18:35.845Z,19.95
2023-01-05T01:19:39.279Z,20.45
2023-01-05T01:20:41.301Z,20.35
2023-01-05T01:21:43.531Z,20.60
2023-01-05T01:22:45.490Z,20.02
2023-01-05T01:25:53.684Z,19.80
2023-01-05T01:27:23.333Z,19.33
2023-01-05T01:28:25.372Z,19.77
2023-01-05T01:29:27.497Z,20.92
2023-01-05T01:30:30.617Z,21.27
2023-01-05T01:31:32.684Z,20.60
2023-01-05T01:32:34.761Z,20.30
2023-01-05T01:33:39.676Z,20.85
2023-01-05T01:35:43.725Z,20.95
2023-01-05T01:36:46.106Z,20.08
2023-01-05T01:37:48.858Z,19.40
2023-01-05T01:38:50.866Z,20.60
2023-01-05T01:39:53.375Z,20.60
2023-01-05T01:40:55.419Z,20.02
2023-01-05T01:41:58.929Z,21.23
2023-01-05T01:43:00.954Z,21.50
2023-01-05T01:44:03.173Z,21.58
2023-01-05T01:45:25.581Z,20.27
2023-01-05T01:46:28.638Z,18.95
2023-01-05T01:47:36.763Z,19.92
2023-01-05T01:48:42.743Z,19.33
2023-01-05T01:49:44.993Z,19.15
2023-01-05T01:50:52.667Z,19.52
2023-01-05T01:51:57.448Z,20.13
2023-01-05T01:53:04.558Z,20.27
2023-01-05T01:54:09.695Z,21.20
2023-01-05T01:55:12.094Z,26.92
2023-01-05T01:56:18.295Z,34.80
2023-01-05T01:57:22.072Z,25.50
2023-01-05T01:58:29.033Z,21.52
2023-01-05T01:59:31.303Z,20.40
2023-01-05T02:00:33.981Z,19.83
2023-01-05T02:01:36.146Z,19.83
2023-01-05T02:02:38.361Z,19.85
2023-01-05T02:03:40.999Z,19.77
2023-01-05T02:04:44.866Z,19.98
2023-01-05T02:05:47.019Z,19.42
2023-01-05T02:06:50.291Z,19.80
2023-01-05T02:07:52.280Z,20.60
2023-01-05T02:08:54.892Z,25.38
2023-01-05T02:09:57.067Z,27.80
2023-01-05T02:11:08.064Z,24.30
2023-01-05T02:12:33.503Z,23.98
2023-01-05T02:13:38.337Z,18.73
2023-01-05T02:14:52.079Z,20.08
2023-01-05T02:16:26.869Z,19.77
2023-01-05T02:17:59.325Z,20.10
2023-01-05T02:19:10.237Z,19.35
2023-01-05T02:20:27.043Z,19.15
2023-01-05T02:21:42.103Z,20.70
2023-01-05T02:23:16.933Z,19.00
2023-01-05T02:24:52.200Z,19.08
2023-01-05T02:26:15.911Z,18.77
2023-01-05T02:27:45.617Z,19.30
2023-01-05T02:29:36.770Z,19.63
2023-01-05T02:30:44.442Z,19.20
2023-01-05T02:31:57.553Z,19.55
2023-01-05T02:33:15.434Z,19.98
2023-01-05T02:34:20.329Z,19.27
2023-01-05T02:35:47.847Z,19.90
2023-01-05T02:37:00.532Z,19.70
2023-01-05T02:38:19.849Z,20.13
2023-01-05T02:39:45.754Z,19.45
2023-01-05T02:40:51.907Z,19.17
2023-01-05T02:42:11.598Z,19.10
2023-01-05T02:43:20.720Z,19.67
2023-01-05T02:44:23.395Z,18.65
2023-01-05T02:45:28.637Z,20.55
2023-01-05T02:46:35.165Z,19.73
2023-01-05T02:47:42.379Z,19.77
2023-01-05T02:48:49.255Z,20.37
2023-01-05T02:49:57.247Z,19.63
2023-01-05T02:51:08.305Z,20.85
2023-01-05T02:52:13.169Z,20.08
2023-01-05T02:53:36.394Z,20.88
2023-01-05T02:54:45.313Z,19.83
2023-01-05T02:56:02.364Z,21.20
2023-01-05T02:57:15.950Z,21.15
2023-01-05T02:58:24.690Z,20.77
2023-01-05T02:59:36.837Z,21.50
2023-01-05T03:00:50.698Z,21.27
2023-01-05T03:02:03.876Z,22.08
2023-01-05T03:03:18.352Z,21.23
2023-01-05T03:04:44.138Z,22.77
2023-01-05T03:05:58.905Z,20.58
2023-01-05T03:07:08.910Z,20.52
2023-01-05T03:08:25.115Z,19.75
2023-01-05T03:09:38.373Z,18.13
2023-01-05T03:11:11.924Z,20.05
2023-01-05T03:12:46.524Z,19.40
2023-01-05T03:14:13.229Z,19.17
2023-01-05T03:15:23.944Z,19.02
2023-01-05T03:16:31.261Z,18.85
2023-01-05T03:17:44.747Z,19.17
2023-01-05T03:19:10.018Z,20.77
2023-01-05T03:20:16.091Z,23.25
2023-01-05T03:21:18.319Z,23.15
2023-01-05T03:22:48.845Z,23.98
2023-01-05T03:24:09.551Z,22.02
2023-01-05T03:25:35.478Z,22.50
2023-01-05T03:26:58.798Z,18.83
2023-01-05T03:28:21.165Z,19.33
2023-01-05T03:29:42.476Z,19.70
2023-01-05T03:31:28.061Z,18.88
2023-01-05T03:32:52.029Z,17.20
2023-01-05T03:34:21.364Z,16.83
2023-01-05T03:35:35.464Z,15.55
2023-01-05T03:36:50.821Z,15.73
2023-01-05T03:38:11.357Z,14.40
2023-01-05T03:39:20.586Z,13.23
2023-01-05T03:40:31.010Z,13.00
2023-01-05T03:41:33.865Z,13.60
2023-01-05T03:42:38.257Z,13.02
2023-01-05T03:43:42.061Z,13.75
2023-01-05T03:44:45.881Z,12.85
2023-01-05T03:45:58.399Z,12.27
2023-01-05T03:47:03.229Z,13.57
2023-01-05T03:48:05.882Z,13.73
2023-01-05T03:49:11.169Z,14.23
2023-01-05T03:50:14.396Z,13.57
2023-01-05T03:51:17.041Z,13.70
2023-01-05T03:52:19.092Z,13.75
2023-01-05T03:53:21.353Z,13.95
2023-01-05T03:54:24.421Z,13.35
2023-01-05T03:55:26.692Z,14.95
2023-01-05T03:56:28.715Z,14.90
2023-01-05T03:57:32.802Z,14.88
2023-01-05T03:58:35.142Z,15.23
2023-01-05T03:59:37.211Z,15.35
2023-01-05T04:00:39.766Z,15.60
2023-01-05T04:01:44.833Z,16.23
2023-01-05T04:02:49.491Z,15.50
2023-01-05T04:03:55.926Z,15.25
2023-01-05T04:04:58.498Z,15.90
2023-01-05T04:06:01.272Z,16.52
2023-01-05T04:07:04.846Z,16.08
2023-01-05T04:08:08.968Z,15.40
2023-01-05T04:09:11.849Z,15.43
2023-01-05T04:10:16.304Z,15.30
2023-01-05T04:11:21.275Z,14.73
2023-01-05T04:12:36.711Z,14.70
2023-01-05T04:13:39.177Z,15.52
2023-01-05T04:14:41.535Z,15.13
2023-01-05T04:15:43.635Z,14.80
2023-01-05T04:16:46.492Z,15.80
2023-01-05T04:17:53.797Z,15.30
2023-01-05T04:18:58.955Z,15.50
2023-01-05T04:20:01.591Z,15.90
2023-01-05T04:21:04.426Z,15.95
2023-01-05T04:22:06.815Z,17.42
2023-01-05T04:23:08.899Z,17.63
2023-01-05T04:24:12.368Z,16.77
2023-01-05T04:25:17.038Z,16.63
2023-01-05T04:26:19.579Z,16.42
2023-01-05T04:27:25.118Z,16.95
2023-01-05T04:28:27.719Z,16.30
2023-01-05T04:29:31.941Z,16.75
2023-01-05T04:30:35.805Z,16.17
2023-01-05T04:31:39.098Z,16.50
2023-01-05T04:32:42.347Z,16.60
2023-01-05T04:33:48.482Z,17.20
2023-01-05T04:34:53.878Z,17.10
2023-01-05T04:35:56.581Z,17.25
2023-01-05T04:37:02.039Z,17.60
2023-01-05T04:38:05.970Z,18.00
2023-01-05T04:39:08.493Z,18.00
2023-01-05T04:40:16.376Z,18.17
2023-01-05T04:41:24.139Z,17.88
2023-01-05T04:42:28.229Z,17.35
2023-01-05T04:43:30.848Z,17.83
2023-01-05T04:44:36.607Z,16.70
2023-01-05T04:45:41.359Z,16.52
2023-01-05T04:46:43.434Z,18.35
2023-01-05T04:47:46.790Z,17.95
2023-01-05T04:48:52.720Z,19.13
2023-01-05T04:49:56.367Z,18.50
2023-01-05T04:50:58.699Z,19.23
2023-01-05T04:52:07.850Z,18.77
2023-01-05T04:53:10.785Z,19.00
2023-01-05T04:54:16.059Z,19.60
2023-01-05T04:55:18.361Z,19.27
2023-01-05T04:56:21.259Z,20.00
2023-01-05T04:57:24.501Z,19.85
2023-01-05T04:58:29.745Z,20.52
2023-01-05T04:59:33.572Z,21.35
2023-01-05T05:00:38.460Z,21.02
2023-01-05T05:01:42.186Z,20.83
2023-01-05T05:02:47.544Z,20.35
2023-01-05T05:03:50.774Z,20.45
2023-01-05T05:04:55.016Z,21.95
2023-01-05T05:05:58.552Z,21.03
2023-01-05T05:07:03.038Z,20.30
2023-01-05T05:08:07.668Z,19.83
2023-01-05T05:09:11.311Z,20.42
2023-01-05T05:10:18.018Z,20.35
2023-01-05T05:11:21.997Z,20.73
2023-01-05T05:12:24.886Z,19.77
2023-01-05T05:13:27.853Z,20.15
2023-01-05T05:14:30.088Z,21.30
2023-01-05T05:15:34.614Z,21.20
2023-01-05T05:16:38.237Z,20.93
2023-01-05T05:17:41.748Z,20.13
2023-01-05T05:18:47.449Z,21.88
2023-01-05T05:19:53.942Z,20.65
2023-01-05T05:20:57.273Z,20.65
2023-01-05T05:22:04.244Z,20.65
2023-01-05T05:23:07.268Z,21.05
2023-01-05T05:24:09.626Z,19.80
2023-01-05T05:25:15.336Z,19.98
2023-01-05T05:26:20.729Z,19.88
2023-01-05T05:27:23.879Z,19.87
2023-01-05T05:28:28.534Z,19.63
2023-01-05T05:29:30.615Z,19.88
2023-01-05T05:30:32.798Z,22.02
2023-01-05T05:31:34.874Z,20.65
2023-01-05T05:32:42.393Z,21.77
2023-01-05T05:33:46.280Z,20.90
2023-01-05T05:34:48.300Z,20.75
2023-01-05T05:35:50.627Z,21.05
2023-01-05T05:36:52.582Z,20.98
2023-01-05T05:37:56.686Z,20.40
2023-01-05T05:38:59.115Z,22.02
2023-01-05T05:40:01.124Z,20.48
2023-01-05T05:41:03.195Z,19.38
2023-01-05T05:42:05.434Z,18.15
2023-01-05T05:43:07.425Z,17.65
2023-01-05T05:44:10.090Z,18.20
2023-01-05T05:45:13.157Z,17.38
2023-01-05T05:46:15.204Z,18.63
2023-01-05T05:47:17.285Z,17.95
2023-01-05T05:48:19.873Z,18.00
2023-01-05T05:49:21.914Z,17.67
2023-01-05T05:50:23.943Z,17.50
2023-01-05T05:51:27.212Z,17.30
2023-01-05T05:52:29.254Z,18.13
2023-01-05T05:53:32.293Z,20.23
2023-01-05T05:54:34.311Z,19.13
2023-01-05T05:55:36.415Z,19.63
2023-01-05T05:56:38.387Z,19.30
2023-01-05T05:57:41.126Z,19.90
2023-01-05T05:58:43.551Z,20.10
2023-01-05T05:59:45.533Z,19.35
2023-01-05T06:00:47.976Z,19.88
2023-01-05T06:01:50.156Z,20.17
2023-01-05T06:02:53.024Z,20.23
2023-01-05T06:03:55.140Z,19.48
2023-01-05T06:04:57.193Z,19.15
2023-01-05T06:05:59.276Z,18.75
2023-01-05T06:07:01.390Z,19.15
2023-01-05T06:08:03.538Z,18.10
2023-01-05T06:09:06.049Z,18.17
2023-01-05T06:10:08.780Z,17.90
2023-01-05T06:11:14.054Z,18.13
2023-01-05T06:12:16.373Z,18.25
2023-01-05T06:13:18.826Z,18.00
2023-01-05T06:14:20.837Z,18.23
2023-01-05T06:15:23.961Z,18.13
2023-01-05T06:16:26.521Z,16.98
2023-01-05T06:17:29.255Z,18.50
2023-01-05T06:18:31.390Z,17.50
2023-01-05T06:19:33.440Z,17.40
2023-01-05T06:20:36.196Z,17.48
2023-01-05T06:21:38.393Z,17.55
2023-01-05T06:22:42.096Z,18.38
2023-01-05T06:23:44.166Z,17.58
2023-01-05T06:24:46.264Z,17.77
2023-01-05T06:25:48.282Z,18.25
2023-01-05T06:26:50.311Z,18.08
2023-01-05T06:27:52.318Z,17.92
2023-01-05T06:28:54.334Z,18.25
2023-01-05T06:29:56.445Z,19.13
2023-01-05T06:30:59.167Z,18.90
2023-01-05T06:32:01.220Z,19.02
2023-01-05T06:33:03.318Z,18.00
2023-01-05T06:34:05.290Z,18.08
2023-01-05T06:35:07.561Z,17.88
2023-01-05T06:36:09.739Z,18.02
2023-01-05T06:37:12.821Z,17.48
2023-01-05T06:38:16.172Z,18.42
2023-01-05T06:39:18.167Z,17.70
2023-01-05T06:40:21.321Z,17.77
2023-01-05T06:41:23.339Z,17.25
2023-01-05T06:42:25.601Z,17.27
2023-01-05T06:43:27.704Z,17.77
2023-01-05T06:44:29.745Z,19.23
2023-01-05T06:45:31.887Z,18.85
2023-01-05T06:46:33.976Z,18.75
2023-01-05T06:47:36.009Z,18.02
2023-01-05T06:48:38.035Z,17.50
2023-01-05T06:49:40.413Z,17.70
2023-01-05T06:50:42.477Z,16.93
2023-01-05T06:51:44.529Z,17.42
2023-01-05T06:52:46.487Z,17.88
2023-01-05T06:53:49.332Z,17.73
2023-01-05T06:54:51.467Z,17.88
2023-01-05T06:55:53.665Z,17.63
2023-01-05T06:56:55.718Z,17.02
2023-01-05T06:58:00.965Z,16.60
2023-01-05T06:59:03.400Z,17.65
2023-01-05T07:00:12.860Z,18.05
2023-01-05T07:01:15.041Z,16.67
2023-01-05T07:02:18.065Z,16.15
2023-01-05T07:03:20.103Z,15.93
2023-01-05T07:04:22.773Z,16.90
2023-01-05T07:05:25.017Z,16.58
2023-01-05T07:06:27.618Z,16.80
2023-01-05T07:07:29.813Z,20.75
2023-01-05T07:08:31.948Z,19.88
2023-01-05T07:09:33.952Z,48.33
2023-01-05T07:10:36.052Z,25.75
2023-01-05T07:11:38.343Z,23.03
2023-01-05T07:12:40.436Z,17.45
2023-01-05T07:13:47.026Z,18.30
2023-01-05T07:14:54.364Z,18.20
2023-01-05T07:15:59.485Z,17.40
2023-01-05T07:17:04.149Z,18.73
2023-01-05T07:18:07.584Z,18.20
2023-01-05T07:19:11.153Z,18.70
2023-01-05T07:20:13.381Z,21.40
2023-01-05T07:21:15.378Z,33.40
2023-01-05T07:22:17.400Z,21.97
2023-01-05T07:23:20.421Z,70.85
2023-01-05T07:24:22.921Z,45.95
2023-01-05T07:25:25.028Z,31.13
2023-01-05T07:26:26.995Z,30.48
2023-01-05T07:27:29.037Z,23.05
2023-01-05T07:28:31.230Z,18.42
2023-01-05T07:29:33.271Z,17.67
2023-01-05T07:30:35.237Z,18.05
2023-01-05T07:31:37.218Z,18.63
2023-01-05T07:32:39.267Z,17.30
2023-01-05T07:33:41.238Z,17.75
2023-01-05T07:34:51.130Z,17.90
2023-01-05T07:35:54.341Z,18.38
2023-01-05T07:36:56.399Z,18.42
2023-01-05T07:37:58.677Z,19.55
2023-01-05T07:39:00.681Z,20.02
2023-01-05T07:40:02.721Z,19.92
2023-01-05T07:41:04.874Z,21.23
2023-01-05T07:42:06.933Z,20.60
2023-01-05T07:43:11.723Z,19.50
2023-01-05T07:44:13.794Z,20.13
2023-01-05T07:45:15.939Z,19.85
2023-01-05T07:46:18.074Z,21.13
2023-01-05T07:47:20.167Z,21.17
2023-01-05T07:48:23.712Z,19.73
2023-01-05T07:49:25.804Z,19.85
2023-01-05T07:50:27.907Z,19.65
2023-01-05T07:51:30.345Z,19.52
2023-01-05T07:52:33.213Z,19.15
2023-01-05T07:53:43.836Z,17.87
2023-01-05T07:54:46.779Z,17.52
2023-01-05T07:56:00.217Z,18.15
2023-01-05T07:57:02.312Z,18.20
2023-01-05T07:58:04.303Z,18.38
2023-01-05T07:59:06.324Z,17.52
2023-01-05T08:00:10.419Z,16.77
2023-01-05T08:01:18.374Z,15.52
2023-01-05T08:02:21.219Z,16.30
2023-01-05T08:03:23.860Z,16.83
2023-01-05T08:04:26.004Z,15.50
2023-01-05T08:05:33.970Z,16.40
2023-01-05T08:06:36.018Z,14.88
2023-01-05T08:07:38.304Z,14.50
2023-01-05T08:08:41.165Z,15.27
2023-01-05T08:10:01.647Z,15.70
2023-01-05T08:11:05.266Z,15.20
2023-01-05T08:12:07.462Z,15.80
2023-01-05T08:13:29.518Z,17.88
2023-01-05T08:14:31.580Z,16.75
2023-01-05T08:15:33.614Z,15.32
2023-01-05T08:16:35.703Z,15.20
2023-01-05T08:17:41.215Z,15.52
2023-01-05T08:18:43.306Z,17.25
2023-01-05T08:19:45.376Z,17.10
2023-01-05T08:20:55.112Z,16.88
2023-01-05T08:21:57.317Z,16.83
2023-01-05T08:22:59.282Z,17.02
2023-01-05T08:24:01.242Z,16.83
2023-01-05T08:25:04.016Z,16.35
2023-01-05T08:26:15.882Z,18.20
2023-01-05T08:27:17.958Z,15.73
2023-01-05T08:28:20.078Z,16.25
2023-01-05T08:29:22.221Z,16.45
2023-01-05T08:30:25.102Z,20.15
2023-01-05T08:31:29.994Z,19.83
2023-01-05T08:32:32.673Z,18.13
2023-01-05T08:33:34.982Z,17.15
2023-01-05T08:34:37.092Z,16.58
2023-01-05T08:35:44.332Z,16.23
2023-01-05T08:36:46.779Z,16.10
2023-01-05T08:37:48.800Z,17.00
2023-01-05T08:38:54.857Z,18.00
2023-01-05T08:39:58.042Z,17.27
2023-01-05T08:41:00.525Z,17.35
2023-01-05T08:42:03.046Z,17.70
2023-01-05T08:43:06.305Z,16.55
2023-01-05T08:44:13.420Z,16.00
2023-01-05T08:45:16.596Z,15.85
2023-01-05T08:46:20.737Z,15.82
2023-01-05T08:47:28.013Z,18.30
2023-01-05T08:48:30.559Z,18.03
2023-01-05T08:49:32.521Z,18.75
2023-01-05T08:50:34.927Z,17.30
2023-01-05T08:51:37.448Z,17.98
2023-01-05T08:52:40.000Z,17.90
2023-01-05T08:53:42.297Z,18.50
2023-01-05T08:54:44.277Z,18.13
2023-01-05T08:55:46.349Z,19.73
2023-01-05T08:56:50.765Z,21.10
2023-01-05T08:57:53.081Z,21.27
2023-01-05T08:59:01.338Z,20.93
2023-01-05T09:00:05.982Z,21.17
2023-01-05T09:01:12.372Z,20.23
2023-01-05T09:02:21.685Z,20.90
2023-01-05T09:03:30.206Z,20.90
2023-01-05T09:04:32.359Z,20.38
2023-01-05T09:05:34.355Z,21.60
2023-01-05T09:06:36.514Z,20.67
2023-01-05T09:07:38.534Z,21.33
2023-01-05T09:08:42.678Z,21.52
2023-01-05T09:09:44.697Z,21.90
2023-01-05T09:10:46.780Z,20.70
2023-01-05T09:11:48.726Z,21.30
2023-01-05T09:12:50.832Z,21.67
2023-01-05T09:13:58.719Z,22.25
2023-01-05T09:15:00.790Z,20.20
2023-01-05T09:16:08.062Z,20.35
2023-01-05T09:17:10.234Z,20.25
2023-01-05T09:18:12.445Z,20.23
2023-01-05T09:19:14.517Z,20.15
2023-01-05T09:20:16.475Z,20.27
